Aérodrome :
LOGIN :

S'inscrire | Disclaimer

   EN    FR    IT 

 










Légende :    VFR   VFR Marginal   IFR   IFR Intensif   IFR Très Intensif
Visi : 
Plafond : 
>= 8 km
>= 3000ft
5 à 8 km
1000 à 3000 ft
1500m à 5 km
500 à 1000 ft
800 à 1500m
200 à 500 ft
< 800m
< 200 ft
Symboles :   Orages  Brouillard  Fortes neiges  Fortes précipitations  Vent > 20 kt
SIGMETs :   Divers  Orages  Givrage  Turbulence  Onde Orograph.  Cendres Volcan.







- Altitude de l'aérodrome : 992 ft


LIRV - Roma Viterbo Air Force Base (military)

DERNIER METAR :
  • 221355Z /////KT 5000 -DZ BR FEW003 BKN010 03/00 Q1002

METARs EXPIRÉS :
  • 221255Z /////KT 5000 BR FEW003 BKN010 03/00 Q1002
  • 221155Z /////KT 4000 BR FEW003 BKN010 03/00 Q1003

TAF TAF LIRV
Valide du 22 à 15h jusqu'au 23 à 00h UTC


221400Z 2215/2224 35010KT 7000 SCT020 BKN050
TEMPO 2215/2220 2500 RA BR FEW005 BKN018
PROB40
TEMPO 2221/2224 VRB03KT 0900 FG SCT002
Pas de NOTAMs connus pour ce terrain.



MET'MAP, la Météo Aéronautique d'un coup d'oeil ! - Copyright ORBIFLY Décembre 2007 - Disclaimer

ORBIFLY MET'MAP TEAM :

Programmation & Développement : Alexandra Zaïnal
Conception & Développement : Baudouin d'Aumeries
Co-Programmation & Développement : Marc-Olivier Méhu
Soutien technique & logistique : Manuel Goepfert

Contact : metmap@orbifly.com




SOURCES & CREDITS :

   NOAA